HE33 weather

Deir El Gill Airport
Matruh Governorate, Egypt

Public forecast

Using degrees Celsius for public forecast. Weather courtesy of forecast.io.

METAR (pilot weather report)

Closest report is Mersa Matruh Airport, 37.1 nm (68.7 km) NNE. Retrieved 2019/05/22 14:00 UTC (16 minutes ago):

HEMM 221400Z 10010KT CAVOK 33/13 Q1011 NOSIG

TAF (pilot weather forecast)

Closest forecast is Mersa Matruh Airport, 37.1 nm (68.7 km) NNE. Retrieved 2019/05/22 12:45 UTC (2 hours ago):

TAF HEMM 221100Z 2212/2318 13012KT CAVOK